Time;durP1;ratioP1;P1;durP2;ratioP2;P2;SDS_P1;SDS_P2;PMS_P1;PMS_P2;Temp;Humidity;BMP_temperature;BMP_pressure;BME280_temperature;BME280_humidity;BME280_pressure;Samples;Min_cycle;Max_cycle;Signal;HPM_P1;HPM_P2
2023/02/21 02:15:22;;;;;;;0.23;0.23;;;;;;;-12.33;71.65;97417.66;5058189;28;20396;-71
2023/02/21 02:18:05;;;;;;;0.77;0.30;;;;;;;-12.37;71.89;97415.56;5089631;28;20056;-71
2023/02/21 02:20:57;;;;;;;0.27;0.27;;;;;;;-12.50;71.95;97413.63;5084109;28;20055;-70
2023/02/21 02:24:05;;;;;;;0.30;0.30;;;;;;;-12.62;72.03;97423.81;5102376;28;20036;-71
2023/02/21 02:27:06;;;;;;;0.20;0.20;;;;;;;-12.66;71.91;97426.00;5093414;28;20109;-71
2023/02/21 02:30:10;;;;;;;0.30;0.30;;;;;;;-12.77;72.06;97422.03;5085726;28;20056;-70
2023/02/21 02:33:11;;;;;;;0.33;0.33;;;;;;;-12.89;72.18;97420.84;5076383;28;20056;-68
2023/02/21 02:35:45;;;;;;;0.23;0.23;;;;;;;-12.91;72.06;97415.75;5071217;28;20059;-69
2023/02/21 02:38:20;;;;;;;0.37;0.37;;;;;;;-12.86;72.42;97413.41;5067593;28;20070;-69
2023/02/21 02:40:56;;;;;;;0.37;0.37;;;;;;;-12.89;72.08;97420.84;5068597;28;20040;-68
2023/02/21 02:43:30;;;;;;;0.20;0.20;;;;;;;-12.95;72.09;97425.03;5070889;28;20580;-68
2023/02/21 02:46:04;;;;;;;0.30;0.30;;;;;;;-12.93;71.85;97414.34;5086920;28;20138;-68
2023/02/21 02:48:35;;;;;;;0.30;0.30;;;;;;;-13.01;72.12;97421.31;5071884;28;20404;-71
2023/02/21 02:51:07;;;;;;;0.40;0.40;;;;;;;-13.19;72.41;97399.81;5049614;28;20051;-71
2023/02/21 02:53:34;;;;;;;0.20;0.20;;;;;;;-13.07;72.55;97414.16;5066264;28;20089;-71
2023/02/21 02:56:02;;;;;;;;;;;;;;;-13.01;71.98;97397.63;5051697;28;20077;-71
2023/02/21 02:58:35;;;;;;;0.20;0.20;;;;;;;-13.04;71.92;97407.69;5075786;28;20030;-71
2023/02/21 03:01:19;;;;;;;0.30;0.30;;;;;;;-13.19;71.71;97399.81;5089298;28;20066;-71
2023/02/21 03:04:03;;;;;;;0.20;0.20;;;;;;;-13.27;72.13;97391.03;5066077;28;20047;-71
2023/02/21 03:06:38;;;;;;;0.40;0.33;;;;;;;-13.18;72.09;97401.44;5051702;28;20059;-71
2023/02/21 03:09:12;;;;;;;0.30;0.30;;;;;;;-13.08;71.84;97406.44;5058484;28;20048;-70
2023/02/21 03:11:47;;;;;;;0.30;0.30;;;;;;;-13.07;71.41;97405.44;5106748;28;20089;-71
2023/02/21 03:14:15;;;;;;;0.30;0.30;;;;;;;-12.94;71.63;97407.44;5070905;28;20040;-71
2023/02/21 03:16:47;;;;;;;0.30;0.30;;;;;;;-12.77;71.19;97406.22;5086026;28;20060;-71
2023/02/21 03:19:16;;;;;;;0.30;0.30;;;;;;;-12.60;70.97;97412.09;5082917;28;20044;-71
2023/02/21 03:21:48;;;;;;;0.20;0.20;;;;;;;-12.55;70.43;97411.53;5072369;28;20051;-70
2023/02/21 03:24:16;;;;;;;0.27;0.27;;;;;;;-12.53;70.04;97417.44;5107002;28;20051;-70
2023/02/21 03:26:47;;;;;;;0.30;0.30;;;;;;;-12.47;70.39;97403.53;5050443;28;20044;-70
2023/02/21 03:29:43;;;;;;;0.30;0.30;;;;;;;-12.42;69.94;97408.22;5072224;28;20055;-70
2023/02/21 03:34:42;;;;;;;0.20;0.20;;;;;;;-12.45;69.68;97403.34;5066182;28;20044;-71
2023/02/21 03:37:19;;;;;;;0.40;0.40;;;;;;;-12.43;69.32;97409.22;5070924;28;20135;-71
2023/02/21 03:39:45;;;;;;;0.40;0.40;;;;;;;-12.45;69.65;97403.34;5086072;28;20135;-70
2023/02/21 03:42:12;;;;;;;0.53;0.40;;;;;;;-12.53;69.63;97401.63;5035280;28;20059;-69
2023/02/21 03:44:39;;;;;;;0.45;0.40;;;;;;;-12.59;69.81;97403.19;5065738;28;20056;-68
2023/02/21 03:47:05;;;;;;;0.30;0.30;;;;;;;-12.59;69.60;97413.72;5055763;28;20151;-68
2023/02/21 03:49:31;;;;;;;0.20;0.20;;;;;;;-12.58;69.30;97398.75;5066029;28;20079;-69
2023/02/21 03:51:58;;;;;;;0.20;0.20;;;;;;;-12.65;69.31;97395.22;5068901;28;20079;-68
2023/02/21 03:54:26;;;;;;;0.30;0.30;;;;;;;-12.63;69.48;97401.94;5067603;28;20117;-68
2023/02/21 03:56:55;;;;;;;0.43;0.37;;;;;;;-12.65;69.47;97393.41;5036320;28;20065;-68
2023/02/21 03:59:24;;;;;;;0.30;0.30;;;;;;;-12.61;69.55;97394.66;5086239;28;20048;-68
2023/02/21 04:01:50;;;;;;;0.30;0.30;;;;;;;-12.63;69.09;97391.41;5050250;28;20101;-68
2023/02/21 04:04:17;;;;;;;0.40;0.40;;;;;;;-12.72;69.36;97389.88;5066355;28;20131;-69
2023/02/21 04:06:45;;;;;;;0.20;0.20;;;;;;;-12.82;69.34;97390.97;5065555;28;20574;-68
2023/02/21 04:09:12;;;;;;;0.40;0.40;;;;;;;-12.81;69.46;97386.53;5050313;28;20048;-68
2023/02/21 04:11:42;;;;;;;0.30;0.30;;;;;;;-12.87;69.21;97393.38;5066593;28;20083;-68
2023/02/21 04:14:09;;;;;;;0.30;0.30;;;;;;;-12.95;69.39;97388.19;5081565;28;20502;-68
2023/02/21 04:16:36;;;;;;;0.30;0.30;;;;;;;-13.01;69.17;97392.34;5071841;28;20052;-68
2023/02/21 04:19:02;;;;;;;0.30;0.30;;;;;;;-13.05;69.27;97399.00;5103386;28;20047;-68
2023/02/21 04:21:29;;;;;;;0.30;0.30;;;;;;;-13.21;69.55;97399.97;5056277;28;20047;-68
2023/02/21 04:23:57;;;;;;;0.20;0.20;;;;;;;-13.27;69.71;97403.34;5085160;28;20048;-68
2023/02/21 04:26:28;;;;;;;0.30;0.30;;;;;;;-13.25;69.44;97401.34;5066455;28;20051;-70
2023/02/21 04:28:57;;;;;;;0.30;0.30;;;;;;;-13.25;69.62;97396.91;5068635;28;20057;-68
2023/02/21 04:31:23;;;;;;;0.30;0.30;;;;;;;-13.27;69.93;97404.19;5050934;28;20044;-68
2023/02/21 04:33:50;;;;;;;0.35;0.35;;;;;;;-13.32;69.86;97403.88;5063966;28;20051;-68
2023/02/21 04:36:23;;;;;;;0.40;0.40;;;;;;;-13.37;69.85;97402.78;5066125;28;20456;-68
2023/02/21 04:38:49;;;;;;;0.30;0.30;;;;;;;-13.48;70.10;97404.91;5076939;28;20056;-69
2023/02/21 04:41:16;;;;;;;0.37;0.37;;;;;;;-13.49;70.09;97405.91;5084452;28;20526;-68
2023/02/21 04:43:43;;;;;;;0.20;0.20;;;;;;;-13.61;70.32;97413.41;5083854;28;20430;-70
2023/02/21 04:46:15;;;;;;;0.30;0.30;;;;;;;-13.77;70.14;97408.28;5081576;28;20068;-70
2023/02/21 04:48:42;;;;;;;0.30;0.30;;;;;;;-13.85;70.60;97415.25;5085101;28;20036;-68
2023/02/21 04:51:08;;;;;;;0.37;0.37;;;;;;;-13.89;70.65;97414.00;5075917;28;20045;-68
2023/02/21 04:53:34;;;;;;;0.53;0.20;;;;;;;-13.95;70.83;97416.50;5069081;28;20146;-68
2023/02/21 04:56:00;;;;;;;0.33;0.33;;;;;;;-13.96;70.84;97410.41;5047943;28;20050;-68
2023/02/21 04:58:26;;;;;;;0.30;0.30;;;;;;;-13.90;70.78;97425.47;5068794;28;20072;-69
2023/02/21 05:00:52;;;;;;;0.30;0.30;;;;;;;-13.80;70.80;97427.03;5076333;28;20067;-69
2023/02/21 05:03:20;;;;;;;0.63;0.40;;;;;;;-13.72;70.72;97424.38;5070674;28;20048;-68
2023/02/21 05:05:46;;;;;;;0.30;0.30;;;;;;;-13.63;70.43;97425.09;5076611;28;20044;-69
2023/02/21 05:08:13;;;;;;;0.30;0.30;;;;;;;-13.67;70.32;97414.13;5065121;28;20052;-68
2023/02/21 05:10:39;;;;;;;0.20;0.20;;;;;;;-13.72;70.06;97421.72;5072622;28;20068;-68
2023/02/21 05:13:05;;;;;;;0.20;0.20;;;;;;;-13.77;70.65;97422.25;5077069;28;20040;-68
2023/02/21 05:15:31;;;;;;;0.30;0.30;;;;;;;-13.76;69.93;97425.69;5080720;28;20051;-68
2023/02/21 05:17:57;;;;;;;0.33;0.30;;;;;;;-13.84;70.48;97427.41;5073836;28;20044;-68
2023/02/21 05:20:25;;;;;;;0.30;0.30;;;;;;;-13.89;70.73;97418.41;5087809;28;20056;-68
2023/02/21 05:22:51;;;;;;;0.30;0.30;;;;;;;-13.82;70.69;97424.59;5075806;28;20044;-69
2023/02/21 05:25:18;;;;;;;0.53;0.30;;;;;;;-13.77;70.49;97421.44;5067299;28;20435;-68
2023/02/21 05:27:45;;;;;;;0.38;0.38;;;;;;;-13.86;70.16;97421.50;5081625;28;20577;-68
2023/02/21 05:30:13;;;;;;;0.20;0.20;;;;;;;-13.89;70.65;97423.66;5057793;28;20155;-69
2023/02/21 05:32:38;;;;;;;;;;;;;;;-13.73;70.42;97430.63;5090436;28;20059;-72
2023/02/21 05:35:06;;;;;;;0.20;0.20;;;;;;;-13.65;69.95;97427.09;5088870;28;19923;-69
2023/02/21 05:37:33;;;;;;;0.20;0.20;;;;;;;-13.60;69.84;97422.91;5089577;28;20599;-68
2023/02/21 05:40:00;;;;;;;0.30;0.30;;;;;;;-13.46;69.90;97426.59;5086736;28;20109;-68
2023/02/21 05:42:26;;;;;;;0.20;0.20;;;;;;;-13.48;69.45;97430.38;5076242;28;20107;-68
2023/02/21 05:44:52;;;;;;;0.30;0.30;;;;;;;-13.46;69.49;97429.22;5058972;28;20052;-68
2023/02/21 05:47:18;;;;;;;0.20;0.20;;;;;;;-13.44;69.55;97426.38;5061638;28;20184;-68
2023/02/21 05:49:44;;;;;;;0.30;0.30;;;;;;;-13.52;69.45;97422.03;5072853;28;20629;-68
2023/02/21 05:52:13;;;;;;;0.40;0.40;;;;;;;-13.48;69.68;97425.13;5057855;28;20844;-69
2023/02/21 05:54:40;;;;;;;0.20;0.20;;;;;;;-13.45;69.47;97425.59;5072966;28;20651;-68
2023/02/21 05:57:06;;;;;;;;;;;;;;;-13.41;69.49;97424.19;5079473;28;20047;-68
2023/02/21 05:59:32;;;;;;;0.30;0.30;;;;;;;-13.38;69.33;97428.28;5067579;28;19924;-68
2023/02/21 06:01:59;;;;;;;0.97;0.40;;;;;;;-13.29;68.79;97431.66;5080473;28;20090;-70
2023/02/21 06:04:25;;;;;;;0.30;0.30;;;;;;;-13.31;68.74;97415.22;5083558;28;20044;-70
2023/02/21 06:06:51;;;;;;;0.40;0.40;;;;;;;-13.19;68.97;97424.28;5070357;28;20048;-70
2023/02/21 06:09:18;;;;;;;0.40;0.40;;;;;;;-13.10;68.51;97422.41;5049657;28;20044;-71
2023/02/21 06:11:46;;;;;;;0.25;0.25;;;;;;;-13.00;68.06;97428.19;5054741;28;20063;-70
2023/02/21 06:14:15;;;;;;;0.30;0.30;;;;;;;-12.93;67.99;97430.91;5063790;28;20045;-70
2023/02/21 06:16:41;;;;;;;0.30;0.30;;;;;;;-12.94;67.76;97433.75;5068152;28;20151;-70
2023/02/21 06:19:09;;;;;;;0.30;0.30;;;;;;;-12.98;67.74;97430.66;5063909;28;20048;-70
2023/02/21 06:21:37;;;;;;;0.30;0.30;;;;;;;-12.82;67.91;97427.84;5070614;28;20041;-69
2023/02/21 06:24:03;;;;;;;;;;;;;;;-12.64;67.62;97424.00;5074204;28;20166;-70
2023/02/21 06:26:29;;;;;;;0.50;0.40;;;;;;;-12.67;66.88;97424.38;5052563;28;19932;-69
2023/02/21 06:28:57;;;;;;;0.30;0.30;;;;;;;-12.63;66.76;97432.72;5088121;28;20113;-70
2023/02/21 06:31:26;;;;;;;;;;;;;;;-12.50;67.15;97438.13;5068779;28;20044;-69
2023/02/21 06:33:52;;;;;;;0.30;0.30;;;;;;;-12.62;66.20;97424.63;5097225;28;19924;-69
2023/02/21 06:36:22;;;;;;;0.30;0.30;;;;;;;-12.49;66.27;97437.13;5084624;28;20113;-68
2023/02/21 06:38:50;;;;;;;0.30;0.30;;;;;;;-12.39;66.30;97426.31;5068042;28;20048;-69
2023/02/21 06:41:17;;;;;;;0.50;0.50;;;;;;;-12.28;65.51;97430.28;5088029;28;20086;-68
2023/02/21 06:43:43;;;;;;;0.40;0.40;;;;;;;-12.26;65.32;97425.63;5052667;28;20056;-69
2023/02/21 06:46:17;;;;;;;0.40;0.40;;;;;;;-12.27;65.15;97431.91;5094065;28;20092;-69
2023/02/21 06:48:43;;;;;;;0.57;0.57;;;;;;;-12.24;65.11;97436.81;5076557;28;20423;-69
2023/02/21 06:51:10;;;;;;;0.27;0.27;;;;;;;-12.17;64.83;97428.97;5067605;28;20056;-69
2023/02/21 06:53:36;;;;;;;0.35;0.35;;;;;;;-12.16;64.34;97428.78;5079117;28;20083;-69
2023/02/21 06:56:02;;;;;;;0.40;0.40;;;;;;;-12.18;64.52;97432.59;5066839;28;20044;-68
2023/02/21 06:58:28;;;;;;;0.53;0.40;;;;;;;-12.16;64.71;97422.69;5099343;28;20043;-69
2023/02/21 07:00:54;;;;;;;0.40;0.40;;;;;;;-11.89;64.48;97425.56;5102998;28;20051;-69
2023/02/21 07:03:22;;;;;;;0.30;0.30;;;;;;;-11.78;63.87;97434.78;5064675;28;20131;-69
2023/02/21 07:05:48;;;;;;;0.40;0.40;;;;;;;-11.74;63.91;97443.94;5076256;28;20043;-69
2023/02/21 07:08:14;;;;;;;0.40;0.40;;;;;;;-11.80;63.13;97434.97;5092034;28;20058;-70
2023/02/21 07:10:40;;;;;;;0.33;0.33;;;;;;;-11.88;62.77;97440.38;5087160;28;20048;-70
2023/02/21 07:13:07;;;;;;;0.37;0.37;;;;;;;-11.93;63.26;97445.41;5083325;28;20048;-69
2023/02/21 07:15:33;;;;;;;0.30;0.30;;;;;;;-11.87;63.06;97444.63;5076267;28;20048;-70
2023/02/21 07:17:59;;;;;;;0.50;0.40;;;;;;;-11.72;62.80;97455.09;5064192;28;20079;-70
2023/02/21 07:20:27;;;;;;;0.40;0.40;;;;;;;-11.66;62.51;97450.91;5077529;28;20074;-70
2023/02/21 07:22:53;;;;;;;0.40;0.40;;;;;;;-11.67;62.36;97444.81;5085522;28;20047;-69
2023/02/21 07:25:21;;;;;;;0.30;0.30;;;;;;;-11.49;62.09;97439.06;5108527;28;20050;-70
2023/02/21 07:27:47;;;;;;;0.37;0.37;;;;;;;-11.49;61.74;97449.63;5075409;28;20051;-69
2023/02/21 07:30:15;;;;;;;0.40;0.40;;;;;;;-11.45;61.52;97448.25;5075186;28;20067;-70
2023/02/21 07:32:41;;;;;;;0.30;0.30;;;;;;;-11.25;61.19;97439.66;5104921;28;20313;-70
2023/02/21 07:35:07;;;;;;;0.50;0.50;;;;;;;-10.90;60.85;97446.78;5075877;28;20121;-70
2023/02/21 07:37:35;;;;;;;0.50;0.50;;;;;;;-10.42;60.02;97444.16;5093329;28;20046;-70
2023/02/21 07:40:01;;;;;;;0.43;0.43;;;;;;;-10.04;58.99;97442.84;5057170;28;20082;-70
2023/02/21 07:42:29;;;;;;;0.40;0.40;;;;;;;-9.70;57.83;97445.50;5084501;28;20064;-70
2023/02/21 07:44:56;;;;;;;0.50;0.50;;;;;;;-9.45;56.62;97453.66;5085236;28;20117;-68
2023/02/21 07:47:22;;;;;;;0.55;0.55;;;;;;;-9.16;56.73;97446.34;5071012;28;20052;-69
2023/02/21 07:49:48;;;;;;;0.40;0.40;;;;;;;-8.76;55.28;97448.09;5090456;28;20056;-70
2023/02/21 07:52:14;;;;;;;0.50;0.50;;;;;;;-8.61;55.09;97450.50;5051680;28;20117;-69
2023/02/21 07:54:42;;;;;;;0.40;0.40;;;;;;;-8.36;53.97;97448.97;5087983;28;20048;-70
2023/02/21 07:57:08;;;;;;;0.50;0.50;;;;;;;-8.11;53.97;97459.66;5089135;28;20056;-70
2023/02/21 07:59:34;;;;;;;0.50;0.50;;;;;;;-7.73;52.83;97460.69;5084704;28;20091;-70
2023/02/21 08:02:01;;;;;;;0.40;0.40;;;;;;;-7.48;52.30;97457.25;5088180;28;20527;-71
2023/02/21 08:04:27;;;;;;;0.55;0.55;;;;;;;-7.25;51.57;97459.34;5067835;28;20058;-69
2023/02/21 08:06:58;;;;;;;0.40;0.40;;;;;;;-7.02;51.27;97452.59;5084411;28;20250;-69
2023/02/21 08:09:24;;;;;;;0.30;0.30;;;;;;;-6.90;50.79;97448.19;5087560;28;20527;-69
2023/02/21 08:11:51;;;;;;;0.40;0.40;;;;;;;-6.88;50.24;97453.25;5058846;28;20044;-69
2023/02/21 08:14:17;;;;;;;0.45;0.45;;;;;;;-6.87;50.49;97455.72;5051232;28;20464;-70
2023/02/21 08:16:44;;;;;;;0.43;0.43;;;;;;;-6.75;49.91;97453.13;5071472;28;20059;-69
2023/02/21 08:19:10;;;;;;;0.30;0.30;;;;;;;-6.53;49.67;97450.06;5090439;28;20109;-70
2023/02/21 08:21:36;;;;;;;0.40;0.40;;;;;;;-6.33;48.96;97452.47;5072667;28;20046;-70
2023/02/21 08:24:02;;;;;;;0.30;0.30;;;;;;;-5.86;48.46;97448.38;5091368;28;20050;-69
2023/02/21 08:26:28;;;;;;;0.33;0.33;;;;;;;-5.76;47.84;97451.31;5090022;28;20039;-69
2023/02/21 08:28:56;;;;;;;0.30;0.30;;;;;;;-5.62;47.86;97457.28;5067264;28;20155;-69
2023/02/21 08:31:22;;;;;;;0.43;0.43;;;;;;;-5.24;47.30;97457.91;5064345;28;20082;-69
2023/02/21 08:33:49;;;;;;;0.40;0.40;;;;;;;-4.92;46.07;97452.25;5045348;28;20535;-69
2023/02/21 08:36:15;;;;;;;0.40;0.40;;;;;;;-4.66;45.61;97460.03;5069144;28;20051;-69
2023/02/21 08:38:42;;;;;;;0.40;0.40;;;;;;;-4.68;46.43;97459.44;5070103;28;20420;-70
2023/02/21 08:41:09;;;;;;;0.40;0.40;;;;;;;-4.42;46.34;97450.94;5066946;28;20052;-70
2023/02/21 08:43:35;;;;;;;0.30;0.30;;;;;;;-3.93;45.90;97454.28;5068047;28;20049;-71
2023/02/21 08:46:03;;;;;;;0.30;0.30;;;;;;;-3.59;44.00;97460.53;5067273;28;20047;-70
2023/02/21 08:48:29;;;;;;;0.30;0.30;;;;;;;-3.49;44.10;97459.91;5073954;28;20063;-69
2023/02/21 08:50:55;;;;;;;0.43;0.43;;;;;;;-3.38;44.70;97457.38;5067555;28;20040;-70
2023/02/21 08:53:21;;;;;;;0.30;0.30;;;;;;;-2.94;43.81;97457.56;5055290;28;20143;-73
2023/02/21 08:55:47;;;;;;;0.30;0.30;;;;;;;-2.87;42.87;97452.03;5071656;28;20140;-72
2023/02/21 08:58:13;;;;;;;0.57;0.40;;;;;;;-2.86;42.23;97454.50;5076627;28;20481;-72
2023/02/21 09:00:39;;;;;;;0.40;0.40;;;;;;;-3.15;43.06;97454.59;5075482;28;20041;-71
2023/02/21 09:03:07;;;;;;;0.30;0.30;;;;;;;-3.81;43.54;97443.56;5067423;28;20146;-72
2023/02/21 09:05:33;;;;;;;0.40;0.40;;;;;;;-4.01;45.01;97453.59;5070504;28;20060;-72
2023/02/21 09:08:00;;;;;;;0.43;0.43;;;;;;;-3.53;43.29;97444.59;5063453;28;20053;-72
2023/02/21 09:10:28;;;;;;;0.50;0.50;;;;;;;-3.09;42.96;97463.50;5072695;28;20128;-72
2023/02/21 09:12:55;;;;;;;0.40;0.40;;;;;;;-2.77;42.42;97470.94;5068818;28;20056;-71
2023/02/21 09:15:21;;;;;;;0.40;0.40;;;;;;;-2.51;42.29;97457.09;5068908;28;20139;-71
2023/02/21 09:17:49;;;;;;;0.50;0.50;;;;;;;-2.00;43.33;97455.06;5070009;28;20045;-72
2023/02/21 09:20:21;;;;;;;0.37;0.37;;;;;;;-1.95;44.32;97462.34;5066689;28;20063;-72
2023/02/21 09:22:47;;;;;;;0.30;0.30;;;;;;;-1.95;45.65;97464.19;5077374;28;20135;-72
2023/02/21 09:25:15;;;;;;;0.53;0.53;;;;;;;-2.37;46.94;97465.56;5066975;28;20490;-72
2023/02/21 09:27:41;;;;;;;;;;;;;;;-2.62;46.47;97464.97;5065519;28;20549;-72
2023/02/21 09:30:11;;;;;;;0.60;0.40;;;;;;;-2.42;47.90;97456.41;5074828;28;19924;-72
2023/02/21 09:32:37;;;;;;;0.50;0.50;;;;;;;-2.06;49.08;97456.06;5064479;28;20066;-71
2023/02/21 09:35:04;;;;;;;0.40;0.40;;;;;;;-1.53;48.75;97455.53;5066949;28;20137;-71
2023/02/21 09:37:32;;;;;;;0.50;0.50;;;;;;;-1.31;45.85;97452.78;5072899;28;20511;-72
2023/02/21 09:39:59;;;;;;;0.47;0.47;;;;;;;-1.14;43.49;97454.53;5076866;28;20035;-71
2023/02/21 09:42:29;;;;;;;0.50;0.50;;;;;;;-1.06;42.54;97448.72;5053052;28;20066;-71
2023/02/21 09:44:55;;;;;;;0.50;0.50;;;;;;;-0.84;41.36;97461.22;5064753;28;20052;-71
2023/02/21 09:47:26;;;;;;;0.50;0.50;;;;;;;-0.64;41.23;97460.53;5035948;28;20055;-72
2023/02/21 09:49:58;;;;;;;0.50;0.50;;;;;;;-0.48;41.26;97450.69;5072335;28;20039;-70
2023/02/21 09:52:31;;;;;;;0.40;0.40;;;;;;;-0.26;41.02;97447.06;5063997;28;20056;-69
2023/02/21 09:55:02;;;;;;;0.50;0.50;;;;;;;0.11;40.70;97448.81;5073780;28;20135;-70
2023/02/21 09:57:29;;;;;;;0.47;0.47;;;;;;;0.41;40.04;97447.25;5071176;28;20511;-71
2023/02/21 09:59:56;;;;;;;0.50;0.50;;;;;;;0.48;39.11;97449.69;5068576;28;20048;-72
2023/02/21 10:02:36;;;;;;;0.50;0.50;;;;;;;0.52;38.16;97455.38;5070615;28;20057;-71
2023/02/21 10:05:12;;;;;;;0.60;0.60;;;;;;;0.96;37.73;97454.03;5074835;28;20056;-69
2023/02/21 10:07:46;;;;;;;0.50;0.50;;;;;;;0.94;37.22;97448.94;5072019;28;20094;-71
2023/02/21 10:10:18;;;;;;;0.55;0.55;;;;;;;1.42;35.46;97455.91;5067825;28;20419;-71
2023/02/21 10:12:50;;;;;;;0.60;0.60;;;;;;;1.44;34.41;97459.13;5070574;28;20047;-70
2023/02/21 10:15:29;;;;;;;0.68;0.68;;;;;;;1.49;34.66;97458.31;5077259;28;20461;-69
2023/02/21 10:18:02;;;;;;;0.60;0.60;;;;;;;1.97;33.61;97450.63;5076883;28;20052;-71
2023/02/21 10:20:34;;;;;;;0.68;0.68;;;;;;;2.06;33.48;97452.72;5075149;28;20056;-71
2023/02/21 10:23:02;;;;;;;0.70;0.70;;;;;;;2.41;32.88;97457.13;5074794;28;20041;-71
2023/02/21 10:25:32;;;;;;;0.60;0.60;;;;;;;2.80;32.54;97452.84;5075776;28;20052;-71
2023/02/21 10:27:59;;;;;;;0.60;0.60;;;;;;;3.02;31.89;97456.97;5071207;28;20053;-70
2023/02/21 10:30:31;;;;;;;0.70;0.70;;;;;;;3.61;31.24;97453.50;5090147;28;20310;-70
2023/02/21 10:32:57;;;;;;;0.60;0.60;;;;;;;3.70;30.13;97465.28;5090174;28;20448;-69
2023/02/21 10:35:23;;;;;;;0.60;0.60;;;;;;;3.45;30.06;97461.75;5053226;28;20723;-70
2023/02/21 10:37:51;;;;;;;0.40;0.40;;;;;;;2.16;30.51;97471.56;5090884;28;20048;-70
2023/02/21 10:40:26;;;;;;;;;;;;;;;1.10;31.96;97468.56;5096164;28;20632;-69
2023/02/21 10:43:00;;;;;;;0.50;0.50;;;;;;;1.01;32.31;97474.78;5097060;28;19985;-70
2023/02/21 10:45:33;;;;;;;0.30;0.30;;;;;;;1.31;32.64;97482.00;5095056;28;20044;-70
2023/02/21 10:48:02;;;;;;;0.30;0.30;;;;;;;-0.15;33.54;97480.97;5091089;28;20051;-70
2023/02/21 10:50:48;;;;;;;0.30;0.30;;;;;;;-1.69;35.73;97493.97;5076812;28;20044;-69
2023/02/21 10:53:24;;;;;;;0.30;0.30;;;;;;;-2.67;37.91;97494.34;5075285;28;20047;-69
2023/02/21 10:56:06;;;;;;;0.60;0.60;;;;;;;-2.00;37.89;97489.88;5101786;28;20047;-69
2023/02/21 10:58:35;;;;;;;0.50;0.50;;;;;;;-0.85;36.19;97489.09;5094979;28;20075;-70
2023/02/21 11:01:11;;;;;;;0.60;0.60;;;;;;;-0.15;34.68;97498.94;5099668;28;20400;-70
2023/02/21 11:03:43;;;;;;;0.30;0.30;;;;;;;-0.36;34.62;97493.47;5100734;28;20055;-71
2023/02/21 11:06:20;;;;;;;0.50;0.50;;;;;;;-0.69;35.18;97499.97;5086895;28;20261;-70
2023/02/21 11:08:46;;;;;;;0.60;0.60;;;;;;;-0.11;34.16;97491.19;5067197;28;20047;-69
2023/02/21 11:11:13;;;;;;;0.60;0.60;;;;;;;0.68;33.64;97505.41;5079512;28;20411;-69
2023/02/21 11:13:41;;;;;;;0.52;0.52;;;;;;;0.97;32.97;97496.84;5075577;28;20048;-69
2023/02/21 11:16:09;;;;;;;;;;;;;;;1.26;32.61;97500.88;5074384;28;20058;-69
2023/02/21 11:18:34;;;;;;;0.50;0.50;;;;;;;1.19;32.18;97500.34;5073268;28;19928;-69
2023/02/21 11:21:11;;;;;;;0.60;0.60;;;;;;;0.30;33.32;97503.97;5090655;28;20040;-69
2023/02/21 11:23:46;;;;;;;0.30;0.30;;;;;;;-0.11;33.71;97512.66;5097722;28;20039;-69
2023/02/21 11:26:14;;;;;;;0.40;0.40;;;;;;;-0.70;34.72;97503.72;5098602;28;20371;-69
2023/02/21 11:28:44;;;;;;;0.60;0.60;;;;;;;-0.59;34.67;97502.72;5094444;28;20124;-70
2023/02/21 11:31:16;;;;;;;0.60;0.60;;;;;;;-0.23;34.18;97511.00;5077190;28;20032;-70
2023/02/21 11:33:51;;;;;;;0.70;0.70;;;;;;;0.53;33.52;97516.94;5080400;28;20050;-72
2023/02/21 11:36:20;;;;;;;1.15;0.82;;;;;;;1.58;32.55;97515.91;5057987;28;20131;-70
2023/02/21 11:39:01;;;;;;;0.70;0.70;;;;;;;1.91;30.79;97521.00;5097422;28;20043;-71
2023/02/21 11:41:30;;;;;;;0.60;0.60;;;;;;;2.13;31.28;97526.84;5077732;28;20827;-71
2023/02/21 11:43:57;;;;;;;0.70;0.70;;;;;;;2.43;30.50;97516.22;5076235;28;20048;-71
2023/02/21 11:46:39;;;;;;;0.50;0.50;;;;;;;2.16;31.12;97530.06;5077259;28;20044;-71
2023/02/21 11:49:16;;;;;;;1.35;1.25;;;;;;;1.46;31.03;97528.84;5061579;28;20161;-71
2023/02/21 11:51:45;;;;;;;0.53;0.40;;;;;;;0.68;32.58;97526.13;5089823;28;20044;-71
2023/02/21 11:54:11;;;;;;;0.50;0.50;;;;;;;0.43;32.76;97522.31;5089886;28;20294;-71
2023/02/21 11:56:50;;;;;;;0.60;0.60;;;;;;;-0.02;32.86;97508.41;5087297;28;20511;-71
2023/02/21 11:59:28;;;;;;;0.65;0.65;;;;;;;0.66;32.77;97530.97;5089093;28;20040;-72
2023/02/21 12:02:15;;;;;;;0.60;0.60;;;;;;;1.35;31.38;97536.13;5056591;28;20043;-72
2023/02/21 12:04:58;;;;;;;0.20;0.20;;;;;;;1.13;31.19;97537.22;5072833;28;20070;-72
2023/02/21 12:07:34;;;;;;;0.20;0.20;;;;;;;-0.64;33.22;97538.38;5090978;28;20094;-71
2023/02/21 12:10:04;;;;;;;0.70;0.30;;;;;;;-2.20;35.21;97548.53;5092206;28;20138;-70
2023/02/21 12:12:40;;;;;;;0.30;0.30;;;;;;;-2.46;36.03;97540.97;5054704;28;20077;-70
2023/02/21 12:15:20;;;;;;;0.30;0.30;;;;;;;-2.64;36.58;97554.59;5087703;28;20038;-71
2023/02/21 12:18:19;;;;;;;0.30;0.30;;;;;;;-2.15;36.17;97554.78;5088720;28;20043;-71
2023/02/21 12:21:00;;;;;;;0.40;0.40;;;;;;;-1.68;35.67;97541.16;5067992;28;20119;-71
2023/02/21 12:23:43;;;;;;;0.47;0.47;;;;;;;-2.14;36.10;97556.41;5064400;28;20044;-70
2023/02/21 12:26:27;;;;;;;0.60;0.60;;;;;;;-1.45;35.87;97564.19;5086662;28;20044;-71
2023/02/21 12:29:05;;;;;;;0.35;0.35;;;;;;;-1.10;34.50;97564.81;5070556;28;20063;-71
2023/02/21 12:31:49;;;;;;;0.70;0.70;;;;;;;-1.25;34.79;97573.50;5061412;28;20044;-71
2023/02/21 12:34:30;;;;;;;0.50;0.50;;;;;;;-0.72;34.08;97568.38;5080253;28;20043;-71
2023/02/21 12:37:13;;;;;;;0.60;0.60;;;;;;;-0.36;33.13;97565.97;5101664;28;20039;-71
2023/02/21 12:39:56;;;;;;;0.60;0.60;;;;;;;-0.47;33.00;97554.38;5091119;28;20130;-71
2023/02/21 12:42:39;;;;;;;0.50;0.50;;;;;;;-0.49;33.34;97579.84;5080480;28;20051;-70
2023/02/21 12:45:21;;;;;;;0.50;0.50;;;;;;;-0.31;33.45;97589.38;5067376;28;20121;-70
2023/02/21 12:47:54;;;;;;;0.50;0.50;;;;;;;-0.68;33.79;97592.84;5086005;28;20467;-71
2023/02/21 12:50:24;;;;;;;0.52;0.52;;;;;;;-0.37;33.38;97587.72;5070527;28;20051;-69
2023/02/21 12:53:01;;;;;;;0.20;0.20;;;;;;;-1.26;34.09;97585.28;5085857;28;20143;-69
2023/02/21 12:55:32;;;;;;;0.30;0.30;;;;;;;-2.45;35.79;97604.13;5050999;28;20040;-69
2023/02/21 12:58:02;;;;;;;0.40;0.40;;;;;;;-2.87;36.78;97599.97;5085505;28;20140;-69
2023/02/21 13:00:33;;;;;;;0.20;0.20;;;;;;;-2.66;36.63;97603.00;5083877;28;20059;-69
2023/02/21 13:03:08;;;;;;;0.30;0.30;;;;;;;-3.48;37.96;97597.81;5074564;28;20337;-68
2023/02/21 13:05:43;;;;;;;0.43;0.40;;;;;;;-3.40;38.40;97606.47;5070935;28;20554;-68
2023/02/21 13:08:19;;;;;;;0.20;0.20;;;;;;;-3.17;37.90;97616.28;5082456;28;20052;-68
2023/02/21 13:10:51;;;;;;;0.50;0.50;;;;;;;-3.17;38.19;97614.44;5102783;28;20391;-69
2023/02/21 13:13:22;;;;;;;0.50;0.50;;;;;;;-2.62;37.16;97612.16;5083061;28;20440;-69
2023/02/21 13:15:52;;;;;;;0.40;0.40;;;;;;;-2.26;36.57;97624.47;5104486;28;20045;-69
2023/02/21 13:18:24;;;;;;;0.40;0.40;;;;;;;-2.11;36.39;97627.38;5080229;28;20048;-69
2023/02/21 13:20:55;;;;;;;0.20;0.20;;;;;;;-2.94;37.24;97633.28;5071975;28;20457;-69
2023/02/21 13:26:43;;;;;;;0.40;0.40;;;;;;;-3.59;39.27;97631.53;5090243;28;20040;-69
2023/02/21 13:29:17;;;;;;;0.32;0.32;;;;;;;-3.72;39.44;97637.13;5065233;28;20094;-69
2023/02/21 13:31:44;;;;;;;0.30;0.30;;;;;;;-3.89;39.92;97637.84;5069574;28;20158;-68
2023/02/21 13:34:19;;;;;;;0.30;0.30;;;;;;;-4.10;40.41;97638.41;5089525;28;20044;-70
2023/02/21 13:36:46;;;;;;;0.30;0.30;;;;;;;-4.37;41.04;97644.19;5081879;28;20036;-68
2023/02/21 13:39:15;;;;;;;0.30;0.30;;;;;;;-4.61;41.64;97638.84;5075279;28;20509;-68
2023/02/21 13:41:45;;;;;;;0.23;0.23;;;;;;;-4.88;42.19;97657.91;5057399;28;20047;-69
2023/02/21 13:44:17;;;;;;;0.30;0.30;;;;;;;-5.19;42.86;97654.41;5088792;28;20155;-69
2023/02/21 13:47:09;;;;;;;0.20;0.20;;;;;;;-5.62;43.63;97659.66;5094160;28;20154;-69
2023/02/21 13:49:49;;;;;;;0.20;0.20;;;;;;;-6.17;44.83;97669.25;5096248;28;20176;-69
2023/02/21 13:52:57;;;;;;;0.10;0.10;;;;;;;-6.79;46.03;97674.41;5071073;28;20283;-68
2023/02/21 13:55:30;;;;;;;0.30;0.30;;;;;;;-7.05;47.37;97687.63;5092452;28;20040;-68
2023/02/21 13:58:43;;;;;;;0.20;0.20;;;;;;;-6.67;46.53;97685.19;5092294;28;20077;-68
2023/02/21 14:01:45;;;;;;;0.20;0.20;;;;;;;-6.49;46.13;97693.22;5071764;28;20531;-69
2023/02/21 14:04:58;;;;;;;0.30;0.30;;;;;;;-6.63;45.89;97703.16;5094214;28;20188;-68
2023/02/21 14:07:55;;;;;;;0.10;0.10;;;;;;;-6.59;45.73;97699.03;5094827;28;20035;-68
2023/02/21 14:10:32;;;;;;;0.10;0.10;;;;;;;-7.12;46.39;97706.25;5095995;28;20055;-68